sensor_id;sensor_type;location;lat;lon;timestamp;P1;durP1;ratioP1;P2;durP2;ratioP2
52534;SDS011;38443;53.164;5.802;2023-02-11T00:00:19;26.40;;;7.68;;
52534;SDS011;38443;53.164;5.802;2023-02-11T00:05:10;24.98;;;8.40;;
52534;SDS011;38443;53.164;5.802;2023-02-11T00:10:00;24.92;;;8.15;;
52534;SDS011;38443;53.164;5.802;2023-02-11T00:12:30;22.65;;;8.20;;
52534;SDS011;38443;53.164;5.802;2023-02-11T00:17:21;23.33;;;7.78;;
52534;SDS011;38443;53.164;5.802;2023-02-11T00:22:15;20.65;;;8.55;;
52534;SDS011;38443;53.164;5.802;2023-02-11T00:27:06;20.63;;;8.45;;
52534;SDS011;38443;53.164;5.802;2023-02-11T00:31:56;24.77;;;9.52;;
52534;SDS011;38443;53.164;5.802;2023-02-11T00:36:47;26.83;;;9.05;;
52534;SDS011;38443;53.164;5.802;2023-02-11T00:39:13;24.67;;;8.73;;
52534;SDS011;38443;53.164;5.802;2023-02-11T00:44:05;32.60;;;10.75;;
52534;SDS011;38443;53.164;5.802;2023-02-11T00:48:55;31.60;;;11.60;;
52534;SDS011;38443;53.164;5.802;2023-02-11T00:51:25;30.95;;;11.45;;
52534;SDS011;38443;53.164;5.802;2023-02-11T00:53:52;30.67;;;11.63;;
52534;SDS011;38443;53.164;5.802;2023-02-11T00:58:43;30.15;;;11.95;;
52534;SDS011;38443;53.164;5.802;2023-02-11T01:03:34;32.67;;;11.30;;
52534;SDS011;38443;53.164;5.802;2023-02-11T01:08:25;35.80;;;12.27;;
52534;SDS011;38443;53.164;5.802;2023-02-11T01:13:20;33.15;;;12.20;;
52534;SDS011;38443;53.164;5.802;2023-02-11T01:18:11;37.40;;;11.55;;
52534;SDS011;38443;53.164;5.802;2023-02-11T01:23:02;29.50;;;11.13;;
52534;SDS011;38443;53.164;5.802;2023-02-11T01:27:52;33.38;;;12.15;;
52534;SDS011;38443;53.164;5.802;2023-02-11T01:32:43;30.65;;;13.35;;
52534;SDS011;38443;53.164;5.802;2023-02-11T01:37:33;32.28;;;13.52;;
52534;SDS011;38443;53.164;5.802;2023-02-11T01:42:29;31.10;;;13.57;;
52534;SDS011;38443;53.164;5.802;2023-02-11T01:47:21;32.78;;;13.52;;
52534;SDS011;38443;53.164;5.802;2023-02-11T01:52:35;40.80;;;14.43;;
52534;SDS011;38443;53.164;5.802;2023-02-11T01:55:05;34.97;;;14.80;;
52534;SDS011;38443;53.164;5.802;2023-02-11T01:57:54;30.30;;;14.18;;
52534;SDS011;38443;53.164;5.802;2023-02-11T02:00:24;38.95;;;15.07;;
52534;SDS011;38443;53.164;5.802;2023-02-11T02:10:34;39.35;;;16.80;;
52534;SDS011;38443;53.164;5.802;2023-02-11T02:13:01;36.40;;;15.30;;
52534;SDS011;38443;53.164;5.802;2023-02-11T02:18:02;33.97;;;14.75;;
52534;SDS011;38443;53.164;5.802;2023-02-11T02:26:09;37.13;;;14.63;;
52534;SDS011;38443;53.164;5.802;2023-02-11T02:36:48;32.17;;;15.65;;
52534;SDS011;38443;53.164;5.802;2023-02-11T02:39:26;40.60;;;16.52;;
52534;SDS011;38443;53.164;5.802;2023-02-11T02:41:56;36.63;;;15.40;;
52534;SDS011;38443;53.164;5.802;2023-02-11T02:44:22;31.38;;;17.10;;
52534;SDS011;38443;53.164;5.802;2023-02-11T02:46:48;40.85;;;16.77;;
52534;SDS011;38443;53.164;5.802;2023-02-11T03:00:07;37.92;;;17.60;;
52534;SDS011;38443;53.164;5.802;2023-02-11T03:05:08;40.40;;;18.55;;
52534;SDS011;38443;53.164;5.802;2023-02-11T03:10:50;40.92;;;16.60;;
52534;SDS011;38443;53.164;5.802;2023-02-11T03:13:19;43.90;;;17.70;;
52534;SDS011;38443;53.164;5.802;2023-02-11T03:15:50;35.53;;;16.60;;
52534;SDS011;38443;53.164;5.802;2023-02-11T03:18:18;41.25;;;17.95;;
52534;SDS011;38443;53.164;5.802;2023-02-11T03:20:48;38.45;;;17.45;;
52534;SDS011;38443;53.164;5.802;2023-02-11T03:40:11;39.90;;;17.67;;
52534;SDS011;38443;53.164;5.802;2023-02-11T03:42:42;38.03;;;16.85;;
52534;SDS011;38443;53.164;5.802;2023-02-11T03:45:11;39.03;;;19.35;;
52534;SDS011;38443;53.164;5.802;2023-02-11T03:47:41;39.08;;;17.73;;
52534;SDS011;38443;53.164;5.802;2023-02-11T03:50:11;42.55;;;17.90;;
52534;SDS011;38443;53.164;5.802;2023-02-11T03:52:39;40.17;;;18.17;;
52534;SDS011;38443;53.164;5.802;2023-02-11T03:57:33;47.13;;;18.92;;
52534;SDS011;38443;53.164;5.802;2023-02-11T04:02:26;40.83;;;16.75;;
52534;SDS011;38443;53.164;5.802;2023-02-11T04:04:54;35.75;;;16.25;;
52534;SDS011;38443;53.164;5.802;2023-02-11T04:09:45;36.15;;;18.50;;
52534;SDS011;38443;53.164;5.802;2023-02-11T04:14:36;39.42;;;16.98;;
52534;SDS011;38443;53.164;5.802;2023-02-11T04:19:27;43.50;;;19.10;;
52534;SDS011;38443;53.164;5.802;2023-02-11T04:24:18;40.10;;;17.58;;
52534;SDS011;38443;53.164;5.802;2023-02-11T04:29:08;36.83;;;17.08;;
52534;SDS011;38443;53.164;5.802;2023-02-11T04:33:59;39.88;;;16.65;;
52534;SDS011;38443;53.164;5.802;2023-02-11T04:38:50;40.10;;;16.95;;
52534;SDS011;38443;53.164;5.802;2023-02-11T04:43:40;40.05;;;17.13;;
52534;SDS011;38443;53.164;5.802;2023-02-11T04:48:31;44.95;;;16.90;;
52534;SDS011;38443;53.164;5.802;2023-02-11T04:53:21;41.92;;;15.27;;
52534;SDS011;38443;53.164;5.802;2023-02-11T04:58:13;39.60;;;16.95;;
52534;SDS011;38443;53.164;5.802;2023-02-11T05:03:03;37.70;;;16.02;;
52534;SDS011;38443;53.164;5.802;2023-02-11T05:07:54;41.45;;;18.17;;
52534;SDS011;38443;53.164;5.802;2023-02-11T05:12:46;33.72;;;14.93;;
52534;SDS011;38443;53.164;5.802;2023-02-11T05:15:13;34.35;;;15.82;;
52534;SDS011;38443;53.164;5.802;2023-02-11T05:20:03;34.55;;;16.08;;
52534;SDS011;38443;53.164;5.802;2023-02-11T05:24:54;31.20;;;14.98;;
52534;SDS011;38443;53.164;5.802;2023-02-11T05:29:45;38.85;;;15.38;;
52534;SDS011;38443;53.164;5.802;2023-02-11T05:34:36;32.42;;;16.75;;
52534;SDS011;38443;53.164;5.802;2023-02-11T05:39:26;29.65;;;15.38;;
52534;SDS011;38443;53.164;5.802;2023-02-11T05:44:17;34.22;;;16.08;;
52534;SDS011;38443;53.164;5.802;2023-02-11T05:49:08;42.58;;;16.30;;
52534;SDS011;38443;53.164;5.802;2023-02-11T05:53:58;35.50;;;15.70;;
52534;SDS011;38443;53.164;5.802;2023-02-11T05:58:49;35.05;;;16.45;;
52534;SDS011;38443;53.164;5.802;2023-02-11T06:03:40;33.83;;;16.67;;
52534;SDS011;38443;53.164;5.802;2023-02-11T06:08:33;34.40;;;16.38;;
52534;SDS011;38443;53.164;5.802;2023-02-11T06:13:24;34.58;;;16.55;;
52534;SDS011;38443;53.164;5.802;2023-02-11T06:18:24;39.17;;;17.17;;
52534;SDS011;38443;53.164;5.802;2023-02-11T06:23:15;33.90;;;15.98;;
52534;SDS011;38443;53.164;5.802;2023-02-11T06:28:06;42.42;;;17.60;;
52534;SDS011;38443;53.164;5.802;2023-02-11T06:30:32;41.03;;;17.15;;
52534;SDS011;38443;53.164;5.802;2023-02-11T06:35:23;39.38;;;17.77;;
52534;SDS011;38443;53.164;5.802;2023-02-11T06:40:14;47.40;;;17.80;;
52534;SDS011;38443;53.164;5.802;2023-02-11T06:45:05;42.75;;;18.70;;
52534;SDS011;38443;53.164;5.802;2023-02-11T06:47:33;37.38;;;17.83;;
52534;SDS011;38443;53.164;5.802;2023-02-11T06:52:23;39.03;;;16.40;;
52534;SDS011;38443;53.164;5.802;2023-02-11T06:57:14;35.40;;;17.63;;
52534;SDS011;38443;53.164;5.802;2023-02-11T07:02:05;43.30;;;16.80;;
52534;SDS011;38443;53.164;5.802;2023-02-11T07:06:56;45.45;;;18.58;;
52534;SDS011;38443;53.164;5.802;2023-02-11T07:11:46;40.75;;;18.10;;
52534;SDS011;38443;53.164;5.802;2023-02-11T07:16:37;47.60;;;19.42;;
52534;SDS011;38443;53.164;5.802;2023-02-11T07:21:28;36.90;;;16.08;;
52534;SDS011;38443;53.164;5.802;2023-02-11T07:26:20;38.03;;;17.63;;
52534;SDS011;38443;53.164;5.802;2023-02-11T07:28:47;39.22;;;16.58;;
52534;SDS011;38443;53.164;5.802;2023-02-11T07:31:15;37.10;;;16.35;;
52534;SDS011;38443;53.164;5.802;2023-02-11T07:33:45;32.80;;;15.77;;
52534;SDS011;38443;53.164;5.802;2023-02-11T07:38:37;35.28;;;16.58;;
52534;SDS011;38443;53.164;5.802;2023-02-11T07:43:30;39.88;;;17.38;;
52534;SDS011;38443;53.164;5.802;2023-02-11T07:45:56;38.75;;;16.10;;
52534;SDS011;38443;53.164;5.802;2023-02-11T07:50:47;37.25;;;16.08;;
52534;SDS011;38443;53.164;5.802;2023-02-11T07:55:37;41.75;;;15.70;;
52534;SDS011;38443;53.164;5.802;2023-02-11T08:00:28;34.17;;;15.25;;
52534;SDS011;38443;53.164;5.802;2023-02-11T08:05:20;35.38;;;17.65;;
52534;SDS011;38443;53.164;5.802;2023-02-11T08:10:11;40.25;;;17.33;;
52534;SDS011;38443;53.164;5.802;2023-02-11T08:15:02;38.65;;;16.48;;
52534;SDS011;38443;53.164;5.802;2023-02-11T08:19:53;42.00;;;15.93;;
52534;SDS011;38443;53.164;5.802;2023-02-11T08:24:43;34.83;;;15.38;;
52534;SDS011;38443;53.164;5.802;2023-02-11T08:29:34;36.60;;;15.52;;
52534;SDS011;38443;53.164;5.802;2023-02-11T08:34:24;36.83;;;15.07;;
52534;SDS011;38443;53.164;5.802;2023-02-11T08:39:16;35.63;;;15.10;;
52534;SDS011;38443;53.164;5.802;2023-02-11T08:41:43;30.67;;;13.00;;
52534;SDS011;38443;53.164;5.802;2023-02-11T08:44:09;35.38;;;14.50;;
52534;SDS011;38443;53.164;5.802;2023-02-11T08:49:00;26.27;;;12.55;;
52534;SDS011;38443;53.164;5.802;2023-02-11T08:53:52;28.40;;;11.50;;
52534;SDS011;38443;53.164;5.802;2023-02-11T08:56:18;29.08;;;11.68;;
52534;SDS011;38443;53.164;5.802;2023-02-11T08:58:45;22.55;;;10.52;;
52534;SDS011;38443;53.164;5.802;2023-02-11T09:01:15;21.50;;;10.57;;
52534;SDS011;38443;53.164;5.802;2023-02-11T09:03:45;24.45;;;11.55;;
52534;SDS011;38443;53.164;5.802;2023-02-11T09:08:38;27.93;;;11.33;;
52534;SDS011;38443;53.164;5.802;2023-02-11T09:11:07;29.42;;;9.60;;
52534;SDS011;38443;53.164;5.802;2023-02-11T09:13:34;25.25;;;10.00;;
52534;SDS011;38443;53.164;5.802;2023-02-11T09:18:26;21.75;;;8.70;;
52534;SDS011;38443;53.164;5.802;2023-02-11T09:23:18;21.80;;;9.30;;
52534;SDS011;38443;53.164;5.802;2023-02-11T09:25:43;20.67;;;8.40;;
52534;SDS011;38443;53.164;5.802;2023-02-11T09:30:35;18.60;;;8.27;;
52534;SDS011;38443;53.164;5.802;2023-02-11T09:33:02;16.45;;;7.93;;
52534;SDS011;38443;53.164;5.802;2023-02-11T09:37:53;14.32;;;6.85;;
52534;SDS011;38443;53.164;5.802;2023-02-11T09:45:41;23.15;;;8.00;;
52534;SDS011;38443;53.164;5.802;2023-02-11T09:50:39;14.52;;;7.07;;
52534;SDS011;38443;53.164;5.802;2023-02-11T09:55:51;18.95;;;7.65;;
52534;SDS011;38443;53.164;5.802;2023-02-11T09:58:41;19.25;;;7.25;;
52534;SDS011;38443;53.164;5.802;2023-02-11T10:06:45;20.83;;;7.25;;
52534;SDS011;38443;53.164;5.802;2023-02-11T10:22:42;13.80;;;4.95;;
52534;SDS011;38443;53.164;5.802;2023-02-11T10:27:59;17.08;;;7.22;;
52534;SDS011;38443;53.164;5.802;2023-02-11T10:30:32;13.32;;;5.05;;
52534;SDS011;38443;53.164;5.802;2023-02-11T10:33:03;13.63;;;5.13;;
52534;SDS011;38443;53.164;5.802;2023-02-11T10:35:36;12.43;;;5.20;;
52534;SDS011;38443;53.164;5.802;2023-02-11T10:38:02;15.18;;;6.45;;
52534;SDS011;38443;53.164;5.802;2023-02-11T10:42:55;18.30;;;6.82;;
52534;SDS011;38443;53.164;5.802;2023-02-11T10:48:00;13.90;;;5.97;;
52534;SDS011;38443;53.164;5.802;2023-02-11T10:50:30;15.77;;;5.63;;
52534;SDS011;38443;53.164;5.802;2023-02-11T10:55:36;14.10;;;5.57;;
52534;SDS011;38443;53.164;5.802;2023-02-11T10:58:02;12.88;;;5.45;;
52534;SDS011;38443;53.164;5.802;2023-02-11T11:00:33;10.73;;;5.35;;
52534;SDS011;38443;53.164;5.802;2023-02-11T11:03:13;14.93;;;5.40;;
52534;SDS011;38443;53.164;5.802;2023-02-11T11:11:24;9.27;;;4.93;;
52534;SDS011;38443;53.164;5.802;2023-02-11T11:16:26;15.05;;;5.20;;
52534;SDS011;38443;53.164;5.802;2023-02-11T11:19:19;11.68;;;4.30;;
52534;SDS011;38443;53.164;5.802;2023-02-11T11:21:54;15.52;;;5.25;;
52534;SDS011;38443;53.164;5.802;2023-02-11T11:26:54;11.70;;;4.75;;
52534;SDS011;38443;53.164;5.802;2023-02-11T11:29:30;9.63;;;5.13;;
52534;SDS011;38443;53.164;5.802;2023-02-11T11:32:01;13.80;;;4.57;;
52534;SDS011;38443;53.164;5.802;2023-02-11T11:37:09;11.60;;;4.57;;
52534;SDS011;38443;53.164;5.802;2023-02-11T11:39:45;12.52;;;4.65;;
52534;SDS011;38443;53.164;5.802;2023-02-11T11:45:17;9.98;;;4.18;;
52534;SDS011;38443;53.164;5.802;2023-02-11T11:50:51;13.27;;;5.03;;
52534;SDS011;38443;53.164;5.802;2023-02-11T11:55:58;13.30;;;4.47;;
52534;SDS011;38443;53.164;5.802;2023-02-11T11:58:31;11.05;;;4.13;;
52534;SDS011;38443;53.164;5.802;2023-02-11T12:01:04;7.63;;;4.30;;
52534;SDS011;38443;53.164;5.802;2023-02-11T12:03:55;8.70;;;3.58;;
52534;SDS011;38443;53.164;5.802;2023-02-11T12:09:14;10.80;;;4.78;;
52534;SDS011;38443;53.164;5.802;2023-02-11T12:17:25;13.95;;;4.03;;
52534;SDS011;38443;53.164;5.802;2023-02-11T12:25:38;17.23;;;4.50;;
52534;SDS011;38443;53.164;5.802;2023-02-11T12:28:24;11.20;;;4.13;;
52534;SDS011;38443;53.164;5.802;2023-02-11T12:33:49;17.85;;;4.57;;
52534;SDS011;38443;53.164;5.802;2023-02-11T12:54:05;14.30;;;4.20;;
52534;SDS011;38443;53.164;5.802;2023-02-11T13:01:50;14.23;;;4.20;;
52534;SDS011;38443;53.164;5.802;2023-02-11T13:06:47;13.02;;;4.20;;
52534;SDS011;38443;53.164;5.802;2023-02-11T13:09:17;12.98;;;3.95;;
52534;SDS011;38443;53.164;5.802;2023-02-11T13:11:50;10.80;;;3.90;;
52534;SDS011;38443;53.164;5.802;2023-02-11T13:16:53;10.35;;;4.15;;
52534;SDS011;38443;53.164;5.802;2023-02-11T13:22:02;12.98;;;4.00;;
52534;SDS011;38443;53.164;5.802;2023-02-11T13:37:50;10.68;;;3.80;;
52534;SDS011;38443;53.164;5.802;2023-02-11T13:42:55;13.80;;;3.83;;
52534;SDS011;38443;53.164;5.802;2023-02-11T13:45:30;14.15;;;3.97;;
52534;SDS011;38443;53.164;5.802;2023-02-11T13:48:01;27.67;;;4.22;;
52534;SDS011;38443;53.164;5.802;2023-02-11T13:50:31;10.73;;;3.72;;
52534;SDS011;38443;53.164;5.802;2023-02-11T13:53:02;14.23;;;4.50;;
52534;SDS011;38443;53.164;5.802;2023-02-11T13:55:31;10.40;;;3.92;;
52534;SDS011;38443;53.164;5.802;2023-02-11T14:22:03;10.10;;;3.67;;
52534;SDS011;38443;53.164;5.802;2023-02-11T14:24:44;7.65;;;4.32;;
52534;SDS011;38443;53.164;5.802;2023-02-11T14:35:40;15.55;;;3.83;;
52534;SDS011;38443;53.164;5.802;2023-02-11T14:43:37;8.35;;;3.58;;
52534;SDS011;38443;53.164;5.802;2023-02-11T14:46:06;10.10;;;3.55;;
52534;SDS011;38443;53.164;5.802;2023-02-11T14:53:42;14.15;;;3.92;;
52534;SDS011;38443;53.164;5.802;2023-02-11T14:56:18;10.88;;;3.65;;
52534;SDS011;38443;53.164;5.802;2023-02-11T14:58:49;11.18;;;3.83;;
52534;SDS011;38443;53.164;5.802;2023-02-11T15:03:56;18.02;;;3.83;;
52534;SDS011;38443;53.164;5.802;2023-02-11T15:08:56;8.48;;;3.83;;
52534;SDS011;38443;53.164;5.802;2023-02-11T15:11:28;10.48;;;3.85;;
52534;SDS011;38443;53.164;5.802;2023-02-11T15:13:57;15.02;;;3.72;;
52534;SDS011;38443;53.164;5.802;2023-02-11T15:16:30;9.25;;;3.63;;
52534;SDS011;38443;53.164;5.802;2023-02-11T15:19:00;14.93;;;4.13;;
52534;SDS011;38443;53.164;5.802;2023-02-11T15:21:28;18.10;;;5.10;;
52534;SDS011;38443;53.164;5.802;2023-02-11T15:23:57;10.82;;;4.45;;
52534;SDS011;38443;53.164;5.802;2023-02-11T15:26:25;17.60;;;4.07;;
52534;SDS011;38443;53.164;5.802;2023-02-11T15:28:51;12.68;;;3.80;;
52534;SDS011;38443;53.164;5.802;2023-02-11T15:33:44;10.53;;;3.60;;
52534;SDS011;38443;53.164;5.802;2023-02-11T15:36:10;12.43;;;3.05;;
52534;SDS011;38443;53.164;5.802;2023-02-11T15:38:37;13.98;;;4.07;;
52534;SDS011;38443;53.164;5.802;2023-02-11T15:43:41;11.00;;;4.00;;
52534;SDS011;38443;53.164;5.802;2023-02-11T15:46:08;19.85;;;4.70;;
52534;SDS011;38443;53.164;5.802;2023-02-11T15:48:40;10.68;;;3.83;;
52534;SDS011;38443;53.164;5.802;2023-02-11T15:51:12;11.02;;;3.53;;
52534;SDS011;38443;53.164;5.802;2023-02-11T15:53:43;10.63;;;3.78;;
52534;SDS011;38443;53.164;5.802;2023-02-11T15:56:30;11.82;;;3.70;;
52534;SDS011;38443;53.164;5.802;2023-02-11T15:59:26;9.35;;;3.70;;
52534;SDS011;38443;53.164;5.802;2023-02-11T16:01:56;12.38;;;4.43;;
52534;SDS011;38443;53.164;5.802;2023-02-11T16:04:26;10.40;;;4.20;;
52534;SDS011;38443;53.164;5.802;2023-02-11T16:06:52;11.88;;;3.47;;
52534;SDS011;38443;53.164;5.802;2023-02-11T16:19:42;5.20;;;3.15;;
52534;SDS011;38443;53.164;5.802;2023-02-11T16:22:10;11.43;;;3.80;;
52534;SDS011;38443;53.164;5.802;2023-02-11T16:24:44;10.88;;;3.30;;
52534;SDS011;38443;53.164;5.802;2023-02-11T16:29:49;9.35;;;3.80;;
52534;SDS011;38443;53.164;5.802;2023-02-11T16:32:17;13.23;;;3.70;;
52534;SDS011;38443;53.164;5.802;2023-02-11T16:34:44;11.18;;;3.70;;
52534;SDS011;38443;53.164;5.802;2023-02-11T16:39:35;14.98;;;3.42;;
52534;SDS011;38443;53.164;5.802;2023-02-11T16:44:26;17.83;;;3.78;;
52534;SDS011;38443;53.164;5.802;2023-02-11T16:46:52;12.80;;;4.22;;
52534;SDS011;38443;53.164;5.802;2023-02-11T16:49:23;16.40;;;5.70;;
52534;SDS011;38443;53.164;5.802;2023-02-11T16:51:54;15.82;;;4.72;;
52534;SDS011;38443;53.164;5.802;2023-02-11T16:54:21;14.50;;;6.43;;
52534;SDS011;38443;53.164;5.802;2023-02-11T16:56:47;13.63;;;3.60;;
52534;SDS011;38443;53.164;5.802;2023-02-11T17:01:38;10.10;;;3.72;;
52534;SDS011;38443;53.164;5.802;2023-02-11T17:04:05;9.35;;;3.05;;
52534;SDS011;38443;53.164;5.802;2023-02-11T17:06:32;9.05;;;3.63;;
52534;SDS011;38443;53.164;5.802;2023-02-11T17:08:58;10.73;;;3.40;;
52534;SDS011;38443;53.164;5.802;2023-02-11T17:13:49;7.38;;;3.25;;
52534;SDS011;38443;53.164;5.802;2023-02-11T17:18:41;11.88;;;4.28;;
52534;SDS011;38443;53.164;5.802;2023-02-11T17:23:32;15.25;;;3.88;;
52534;SDS011;38443;53.164;5.802;2023-02-11T17:28:23;6.95;;;3.47;;
52534;SDS011;38443;53.164;5.802;2023-02-11T17:33:13;11.93;;;5.03;;
52534;SDS011;38443;53.164;5.802;2023-02-11T17:35:40;11.30;;;3.58;;
52534;SDS011;38443;53.164;5.802;2023-02-11T17:40:31;13.15;;;4.88;;
52534;SDS011;38443;53.164;5.802;2023-02-11T17:45:21;13.07;;;4.40;;
52534;SDS011;38443;53.164;5.802;2023-02-11T17:50:13;12.93;;;4.22;;
52534;SDS011;38443;53.164;5.802;2023-02-11T17:55:04;13.43;;;4.17;;
52534;SDS011;38443;53.164;5.802;2023-02-11T17:57:30;11.18;;;4.18;;
52534;SDS011;38443;53.164;5.802;2023-02-11T18:02:21;11.45;;;4.40;;
52534;SDS011;38443;53.164;5.802;2023-02-11T18:07:11;9.30;;;4.68;;
52534;SDS011;38443;53.164;5.802;2023-02-11T18:12:03;11.95;;;4.45;;
52534;SDS011;38443;53.164;5.802;2023-02-11T18:14:29;15.85;;;5.15;;
52534;SDS011;38443;53.164;5.802;2023-02-11T18:19:20;12.07;;;5.40;;
52534;SDS011;38443;53.164;5.802;2023-02-11T18:24:13;13.95;;;5.05;;
52534;SDS011;38443;53.164;5.802;2023-02-11T18:29:04;15.10;;;4.97;;
52534;SDS011;38443;53.164;5.802;2023-02-11T18:31:30;16.90;;;6.43;;
52534;SDS011;38443;53.164;5.802;2023-02-11T18:36:22;13.55;;;6.28;;
52534;SDS011;38443;53.164;5.802;2023-02-11T18:41:12;15.68;;;5.50;;
52534;SDS011;38443;53.164;5.802;2023-02-11T18:46:08;12.43;;;5.18;;
52534;SDS011;38443;53.164;5.802;2023-02-11T18:48:35;16.65;;;5.40;;
52534;SDS011;38443;53.164;5.802;2023-02-11T18:51:06;11.57;;;5.43;;
52534;SDS011;38443;53.164;5.802;2023-02-11T18:53:33;15.05;;;7.30;;
52534;SDS011;38443;53.164;5.802;2023-02-11T18:58:25;17.10;;;5.47;;
52534;SDS011;38443;53.164;5.802;2023-02-11T19:03:15;13.38;;;5.63;;
52534;SDS011;38443;53.164;5.802;2023-02-11T19:08:11;16.17;;;7.63;;
52534;SDS011;38443;53.164;5.802;2023-02-11T19:13:08;23.23;;;12.45;;
52534;SDS011;38443;53.164;5.802;2023-02-11T19:18:04;18.40;;;10.57;;
52534;SDS011;38443;53.164;5.802;2023-02-11T19:22:57;23.65;;;13.35;;
52534;SDS011;38443;53.164;5.802;2023-02-11T19:25:23;29.02;;;15.73;;
52534;SDS011;38443;53.164;5.802;2023-02-11T19:30:14;21.27;;;13.47;;
52534;SDS011;38443;53.164;5.802;2023-02-11T19:35:04;23.73;;;12.00;;
52534;SDS011;38443;53.164;5.802;2023-02-11T19:39:55;23.20;;;11.05;;
52534;SDS011;38443;53.164;5.802;2023-02-11T19:44:46;17.17;;;8.13;;
52534;SDS011;38443;53.164;5.802;2023-02-11T19:49:37;17.75;;;10.02;;
52534;SDS011;38443;53.164;5.802;2023-02-11T19:54:28;18.48;;;11.07;;
52534;SDS011;38443;53.164;5.802;2023-02-11T19:59:19;28.85;;;16.63;;
52534;SDS011;38443;53.164;5.802;2023-02-11T20:01:45;24.00;;;13.63;;
52534;SDS011;38443;53.164;5.802;2023-02-11T20:04:13;17.98;;;11.63;;
52534;SDS011;38443;53.164;5.802;2023-02-11T20:06:39;21.60;;;8.30;;
52534;SDS011;38443;53.164;5.802;2023-02-11T20:11:31;22.83;;;14.50;;
52534;SDS011;38443;53.164;5.802;2023-02-11T20:13:58;35.08;;;22.50;;
52534;SDS011;38443;53.164;5.802;2023-02-11T20:18:50;27.00;;;16.97;;
52534;SDS011;38443;53.164;5.802;2023-02-11T20:23:46;29.00;;;17.55;;
52534;SDS011;38443;53.164;5.802;2023-02-11T20:26:15;22.23;;;9.43;;
52534;SDS011;38443;53.164;5.802;2023-02-11T20:28:48;13.30;;;6.20;;
52534;SDS011;38443;53.164;5.802;2023-02-11T20:31:15;12.65;;;6.88;;
52534;SDS011;38443;53.164;5.802;2023-02-11T20:33:42;13.05;;;6.53;;
52534;SDS011;38443;53.164;5.802;2023-02-11T20:36:09;20.63;;;7.25;;
52534;SDS011;38443;53.164;5.802;2023-02-11T20:38:37;15.95;;;7.32;;
52534;SDS011;38443;53.164;5.802;2023-02-11T20:43:29;35.67;;;17.90;;
52534;SDS011;38443;53.164;5.802;2023-02-11T20:48:20;43.92;;;23.35;;
52534;SDS011;38443;53.164;5.802;2023-02-11T20:53:11;48.03;;;27.48;;
52534;SDS011;38443;53.164;5.802;2023-02-11T20:58:03;20.60;;;10.77;;
52534;SDS011;38443;53.164;5.802;2023-02-11T21:00:29;20.92;;;8.93;;
52534;SDS011;38443;53.164;5.802;2023-02-11T21:05:20;18.60;;;10.18;;
52534;SDS011;38443;53.164;5.802;2023-02-11T21:10:10;20.90;;;8.55;;
52534;SDS011;38443;53.164;5.802;2023-02-11T21:15:02;15.10;;;8.52;;
52534;SDS011;38443;53.164;5.802;2023-02-11T21:17:29;20.38;;;8.43;;
52534;SDS011;38443;53.164;5.802;2023-02-11T21:19:55;21.13;;;8.13;;
52534;SDS011;38443;53.164;5.802;2023-02-11T21:22:22;20.70;;;10.25;;
52534;SDS011;38443;53.164;5.802;2023-02-11T21:24:48;19.77;;;9.50;;
52534;SDS011;38443;53.164;5.802;2023-02-11T21:29:40;26.10;;;11.80;;
52534;SDS011;38443;53.164;5.802;2023-02-11T21:34:30;23.02;;;12.82;;
52534;SDS011;38443;53.164;5.802;2023-02-11T21:39:21;26.95;;;12.68;;
52534;SDS011;38443;53.164;5.802;2023-02-11T21:44:12;26.98;;;13.40;;
52534;SDS011;38443;53.164;5.802;2023-02-11T21:49:02;23.75;;;13.10;;
52534;SDS011;38443;53.164;5.802;2023-02-11T21:53:57;23.65;;;13.40;;
52534;SDS011;38443;53.164;5.802;2023-02-11T21:56:25;27.20;;;13.65;;
52534;SDS011;38443;53.164;5.802;2023-02-11T21:58:52;28.80;;;12.50;;
52534;SDS011;38443;53.164;5.802;2023-02-11T22:01:20;27.10;;;13.07;;
52534;SDS011;38443;53.164;5.802;2023-02-11T22:03:47;21.13;;;11.98;;
52534;SDS011;38443;53.164;5.802;2023-02-11T22:08:40;36.65;;;14.63;;
52534;SDS011;38443;53.164;5.802;2023-02-11T22:13:32;29.77;;;12.52;;
52534;SDS011;38443;53.164;5.802;2023-02-11T22:18:24;27.30;;;13.13;;
52534;SDS011;38443;53.164;5.802;2023-02-11T22:23:23;23.08;;;11.93;;
52534;SDS011;38443;53.164;5.802;2023-02-11T22:28:14;33.28;;;12.68;;
52534;SDS011;38443;53.164;5.802;2023-02-11T22:33:05;48.50;;;13.07;;
52534;SDS011;38443;53.164;5.802;2023-02-11T22:37:55;71.00;;;14.88;;
52534;SDS011;38443;53.164;5.802;2023-02-11T22:42:47;73.72;;;13.45;;
52534;SDS011;38443;53.164;5.802;2023-02-11T22:47:38;48.33;;;15.43;;
52534;SDS011;38443;53.164;5.802;2023-02-11T22:52:29;57.67;;;14.20;;
52534;SDS011;38443;53.164;5.802;2023-02-11T22:57:19;102.85;;;18.67;;
52534;SDS011;38443;53.164;5.802;2023-02-11T23:02:11;94.55;;;20.63;;
52534;SDS011;38443;53.164;5.802;2023-02-11T23:07:02;69.57;;;16.90;;
52534;SDS011;38443;53.164;5.802;2023-02-11T23:11:53;61.83;;;14.18;;
52534;SDS011;38443;53.164;5.802;2023-02-11T23:14:19;61.05;;;13.55;;
52534;SDS011;38443;53.164;5.802;2023-02-11T23:19:13;39.78;;;12.00;;
52534;SDS011;38443;53.164;5.802;2023-02-11T23:24:05;51.72;;;12.65;;
52534;SDS011;38443;53.164;5.802;2023-02-11T23:26:34;37.92;;;11.38;;
52534;SDS011;38443;53.164;5.802;2023-02-11T23:29:02;42.53;;;10.32;;
52534;SDS011;38443;53.164;5.802;2023-02-11T23:33:54;43.05;;;10.02;;
52534;SDS011;38443;53.164;5.802;2023-02-11T23:38:45;52.78;;;9.80;;
52534;SDS011;38443;53.164;5.802;2023-02-11T23:43:37;30.48;;;8.77;;
52534;SDS011;38443;53.164;5.802;2023-02-11T23:48:28;67.80;;;11.57;;
52534;SDS011;38443;53.164;5.802;2023-02-11T23:53:18;88.30;;;12.05;;
52534;SDS011;38443;53.164;5.802;2023-02-11T23:58:10;88.40;;;13.48;;
